sensor_id;sensor_type;location;lat;lon;timestamp;temperature;humidity
23237;DHT22;11787;52.018;8.570;2023-04-24T00:01:39;11.50;99.90
23237;DHT22;11787;52.018;8.570;2023-04-24T00:04:06;11.50;99.90
23237;DHT22;11787;52.018;8.570;2023-04-24T00:06:32;11.40;99.90
23237;DHT22;11787;52.018;8.570;2023-04-24T00:09:00;11.40;99.90
23237;DHT22;11787;52.018;8.570;2023-04-24T00:11:26;11.40;99.90
23237;DHT22;11787;52.018;8.570;2023-04-24T00:13:52;11.40;99.90
23237;DHT22;11787;52.018;8.570;2023-04-24T00:16:18;11.40;99.90
23237;DHT22;11787;52.018;8.570;2023-04-24T00:18:43;11.40;99.90
23237;DHT22;11787;52.018;8.570;2023-04-24T00:21:10;11.30;99.90
23237;DHT22;11787;52.018;8.570;2023-04-24T00:23:36;11.30;99.90
23237;DHT22;11787;52.018;8.570;2023-04-24T00:26:01;11.20;99.90
23237;DHT22;11787;52.018;8.570;2023-04-24T00:28:27;11.30;99.90
23237;DHT22;11787;52.018;8.570;2023-04-24T00:30:53;11.20;99.90
23237;DHT22;11787;52.018;8.570;2023-04-24T00:33:19;11.20;99.90
23237;DHT22;11787;52.018;8.570;2023-04-24T00:35:44;11.20;99.90
23237;DHT22;11787;52.018;8.570;2023-04-24T00:38:10;11.20;99.90
23237;DHT22;11787;52.018;8.570;2023-04-24T00:40:36;11.10;99.90
23237;DHT22;11787;52.018;8.570;2023-04-24T00:43:01;11.20;99.90
23237;DHT22;11787;52.018;8.570;2023-04-24T00:45:27;11.20;99.90
23237;DHT22;11787;52.018;8.570;2023-04-24T00:47:53;11.20;99.90
23237;DHT22;11787;52.018;8.570;2023-04-24T00:50:20;11.10;99.90
23237;DHT22;11787;52.018;8.570;2023-04-24T00:52:46;11.10;99.90
23237;DHT22;11787;52.018;8.570;2023-04-24T00:55:12;11.10;99.90
23237;DHT22;11787;52.018;8.570;2023-04-24T00:57:38;11.10;99.90
23237;DHT22;11787;52.018;8.570;2023-04-24T01:00:05;11.10;99.90
23237;DHT22;11787;52.018;8.570;2023-04-24T01:02:33;11.10;99.90
23237;DHT22;11787;52.018;8.570;2023-04-24T01:05:00;11.10;99.90
23237;DHT22;11787;52.018;8.570;2023-04-24T01:07:26;11.10;99.90
23237;DHT22;11787;52.018;8.570;2023-04-24T01:09:52;11.10;99.90
23237;DHT22;11787;52.018;8.570;2023-04-24T01:12:19;11.10;99.90
23237;DHT22;11787;52.018;8.570;2023-04-24T01:14:45;11.10;99.90
23237;DHT22;11787;52.018;8.570;2023-04-24T01:17:11;11.20;99.90
23237;DHT22;11787;52.018;8.570;2023-04-24T01:19:38;11.10;99.90
23237;DHT22;11787;52.018;8.570;2023-04-24T01:22:08;11.10;99.90
23237;DHT22;11787;52.018;8.570;2023-04-24T01:24:35;11.10;99.90
23237;DHT22;11787;52.018;8.570;2023-04-24T01:27:02;11.10;99.90
23237;DHT22;11787;52.018;8.570;2023-04-24T01:29:27;11.10;99.90
23237;DHT22;11787;52.018;8.570;2023-04-24T01:31:53;11.10;99.90
23237;DHT22;11787;52.018;8.570;2023-04-24T01:34:20;11.10;99.90
23237;DHT22;11787;52.018;8.570;2023-04-24T01:36:46;11.10;99.90
23237;DHT22;11787;52.018;8.570;2023-04-24T01:39:12;11.10;99.90
23237;DHT22;11787;52.018;8.570;2023-04-24T01:41:38;11.10;99.90
23237;DHT22;11787;52.018;8.570;2023-04-24T01:44:04;11.00;99.90
23237;DHT22;11787;52.018;8.570;2023-04-24T01:46:29;11.00;99.90
23237;DHT22;11787;52.018;8.570;2023-04-24T01:48:58;11.00;99.90
23237;DHT22;11787;52.018;8.570;2023-04-24T01:51:25;10.90;99.90
23237;DHT22;11787;52.018;8.570;2023-04-24T01:53:50;10.80;99.90
23237;DHT22;11787;52.018;8.570;2023-04-24T01:56:16;10.80;99.90
23237;DHT22;11787;52.018;8.570;2023-04-24T01:58:43;10.80;99.90
23237;DHT22;11787;52.018;8.570;2023-04-24T02:01:08;10.70;99.90
23237;DHT22;11787;52.018;8.570;2023-04-24T02:03:34;10.70;99.90
23237;DHT22;11787;52.018;8.570;2023-04-24T02:06:00;10.70;99.90
23237;DHT22;11787;52.018;8.570;2023-04-24T02:08:25;10.70;99.90
23237;DHT22;11787;52.018;8.570;2023-04-24T02:10:51;10.60;99.90
23237;DHT22;11787;52.018;8.570;2023-04-24T02:13:17;10.70;99.90
23237;DHT22;11787;52.018;8.570;2023-04-24T02:15:42;10.70;99.90
23237;DHT22;11787;52.018;8.570;2023-04-24T02:18:08;10.60;99.90
23237;DHT22;11787;52.018;8.570;2023-04-24T02:20:33;10.60;99.90
23237;DHT22;11787;52.018;8.570;2023-04-24T02:23:01;10.60;99.90
23237;DHT22;11787;52.018;8.570;2023-04-24T02:25:26;10.60;99.90
23237;DHT22;11787;52.018;8.570;2023-04-24T02:27:52;10.50;99.90
23237;DHT22;11787;52.018;8.570;2023-04-24T02:30:17;10.50;99.90
23237;DHT22;11787;52.018;8.570;2023-04-24T02:32:43;10.60;99.90
23237;DHT22;11787;52.018;8.570;2023-04-24T02:35:09;10.50;99.90
23237;DHT22;11787;52.018;8.570;2023-04-24T02:37:34;10.50;99.90
23237;DHT22;11787;52.018;8.570;2023-04-24T02:40:00;10.50;99.90
23237;DHT22;11787;52.018;8.570;2023-04-24T02:42:26;10.50;99.90
23237;DHT22;11787;52.018;8.570;2023-04-24T02:44:51;10.50;99.90
23237;DHT22;11787;52.018;8.570;2023-04-24T02:47:17;10.50;99.90
23237;DHT22;11787;52.018;8.570;2023-04-24T02:49:42;10.50;99.90
23237;DHT22;11787;52.018;8.570;2023-04-24T02:52:08;10.40;99.90
23237;DHT22;11787;52.018;8.570;2023-04-24T02:54:34;10.40;99.90
23237;DHT22;11787;52.018;8.570;2023-04-24T02:56:59;10.40;99.90
23237;DHT22;11787;52.018;8.570;2023-04-24T02:59:26;10.40;99.90
23237;DHT22;11787;52.018;8.570;2023-04-24T03:01:54;10.40;99.90
23237;DHT22;11787;52.018;8.570;2023-04-24T03:04:19;10.40;99.90
23237;DHT22;11787;52.018;8.570;2023-04-24T03:06:45;10.40;99.90
23237;DHT22;11787;52.018;8.570;2023-04-24T03:09:11;10.40;99.90
23237;DHT22;11787;52.018;8.570;2023-04-24T03:11:37;10.50;99.90
23237;DHT22;11787;52.018;8.570;2023-04-24T03:14:02;10.50;99.90
23237;DHT22;11787;52.018;8.570;2023-04-24T03:16:28;10.50;99.90
23237;DHT22;11787;52.018;8.570;2023-04-24T03:18:53;10.60;99.90
23237;DHT22;11787;52.018;8.570;2023-04-24T03:21:19;10.60;99.90
23237;DHT22;11787;52.018;8.570;2023-04-24T03:23:44;10.60;99.90
23237;DHT22;11787;52.018;8.570;2023-04-24T03:26:10;10.60;99.90
23237;DHT22;11787;52.018;8.570;2023-04-24T03:28:36;10.60;99.90
23237;DHT22;11787;52.018;8.570;2023-04-24T03:31:03;10.70;99.90
23237;DHT22;11787;52.018;8.570;2023-04-24T03:33:28;10.70;99.90
23237;DHT22;11787;52.018;8.570;2023-04-24T03:35:54;10.70;99.90
23237;DHT22;11787;52.018;8.570;2023-04-24T03:38:20;10.70;99.90
23237;DHT22;11787;52.018;8.570;2023-04-24T03:40:45;10.80;99.90
23237;DHT22;11787;52.018;8.570;2023-04-24T03:43:11;10.80;99.90
23237;DHT22;11787;52.018;8.570;2023-04-24T03:45:37;10.80;99.90
23237;DHT22;11787;52.018;8.570;2023-04-24T03:48:02;10.80;99.90
23237;DHT22;11787;52.018;8.570;2023-04-24T03:50:28;10.80;99.90
23237;DHT22;11787;52.018;8.570;2023-04-24T03:52:54;10.80;99.90
23237;DHT22;11787;52.018;8.570;2023-04-24T03:55:20;10.80;99.90
23237;DHT22;11787;52.018;8.570;2023-04-24T03:57:45;10.80;99.90
23237;DHT22;11787;52.018;8.570;2023-04-24T04:00:11;10.80;99.90
23237;DHT22;11787;52.018;8.570;2023-04-24T04:02:37;10.80;99.90
23237;DHT22;11787;52.018;8.570;2023-04-24T04:05:03;10.70;99.90
23237;DHT22;11787;52.018;8.570;2023-04-24T04:07:29;10.70;99.90
23237;DHT22;11787;52.018;8.570;2023-04-24T04:09:55;10.70;99.90
23237;DHT22;11787;52.018;8.570;2023-04-24T04:12:20;10.70;99.90
23237;DHT22;11787;52.018;8.570;2023-04-24T04:14:46;10.70;99.90
23237;DHT22;11787;52.018;8.570;2023-04-24T04:17:12;10.70;99.90
23237;DHT22;11787;52.018;8.570;2023-04-24T04:19:37;10.70;99.90
23237;DHT22;11787;52.018;8.570;2023-04-24T04:22:03;10.70;99.90
23237;DHT22;11787;52.018;8.570;2023-04-24T04:24:28;10.70;99.90
23237;DHT22;11787;52.018;8.570;2023-04-24T04:26:54;10.70;99.90
23237;DHT22;11787;52.018;8.570;2023-04-24T04:29:22;10.60;99.90
23237;DHT22;11787;52.018;8.570;2023-04-24T04:31:48;10.70;99.90
23237;DHT22;11787;52.018;8.570;2023-04-24T04:34:13;10.70;99.90
23237;DHT22;11787;52.018;8.570;2023-04-24T04:36:40;10.70;99.90
23237;DHT22;11787;52.018;8.570;2023-04-24T04:39:06;10.70;99.90
23237;DHT22;11787;52.018;8.570;2023-04-24T04:41:32;10.70;99.90
23237;DHT22;11787;52.018;8.570;2023-04-24T04:44:00;10.70;99.90
23237;DHT22;11787;52.018;8.570;2023-04-24T04:46:26;10.70;99.90
23237;DHT22;11787;52.018;8.570;2023-04-24T04:48:53;10.70;99.90
23237;DHT22;11787;52.018;8.570;2023-04-24T04:51:18;10.60;99.90
23237;DHT22;11787;52.018;8.570;2023-04-24T04:53:44;10.60;99.90
23237;DHT22;11787;52.018;8.570;2023-04-24T04:56:10;10.70;99.90
23237;DHT22;11787;52.018;8.570;2023-04-24T04:58:35;10.60;99.90
23237;DHT22;11787;52.018;8.570;2023-04-24T05:01:01;10.50;99.90
23237;DHT22;11787;52.018;8.570;2023-04-24T05:03:27;10.50;99.90
23237;DHT22;11787;52.018;8.570;2023-04-24T05:05:53;10.30;99.90
23237;DHT22;11787;52.018;8.570;2023-04-24T05:08:18;10.30;99.90
23237;DHT22;11787;52.018;8.570;2023-04-24T05:10:44;10.30;99.90
23237;DHT22;11787;52.018;8.570;2023-04-24T05:13:10;10.20;99.90
23237;DHT22;11787;52.018;8.570;2023-04-24T05:15:35;10.10;99.90
23237;DHT22;11787;52.018;8.570;2023-04-24T05:18:01;10.10;99.90
23237;DHT22;11787;52.018;8.570;2023-04-24T05:20:26;10.00;99.90
23237;DHT22;11787;52.018;8.570;2023-04-24T05:22:52;10.00;99.90
23237;DHT22;11787;52.018;8.570;2023-04-24T05:25:18;10.00;99.90
23237;DHT22;11787;52.018;8.570;2023-04-24T05:27:43;10.10;99.90
23237;DHT22;11787;52.018;8.570;2023-04-24T05:30:10;10.20;99.90
23237;DHT22;11787;52.018;8.570;2023-04-24T05:32:35;10.20;99.90
23237;DHT22;11787;52.018;8.570;2023-04-24T05:35:01;10.20;99.90
23237;DHT22;11787;52.018;8.570;2023-04-24T05:37:27;10.20;99.90
23237;DHT22;11787;52.018;8.570;2023-04-24T05:39:52;10.20;99.90
23237;DHT22;11787;52.018;8.570;2023-04-24T05:42:18;10.20;99.90
23237;DHT22;11787;52.018;8.570;2023-04-24T05:44:43;10.30;99.90
23237;DHT22;11787;52.018;8.570;2023-04-24T05:47:09;10.30;99.90
23237;DHT22;11787;52.018;8.570;2023-04-24T05:49:35;10.30;99.90
23237;DHT22;11787;52.018;8.570;2023-04-24T05:52:00;10.40;99.90
23237;DHT22;11787;52.018;8.570;2023-04-24T05:54:26;10.30;99.90
23237;DHT22;11787;52.018;8.570;2023-04-24T05:56:51;10.30;99.90
23237;DHT22;11787;52.018;8.570;2023-04-24T05:59:19;10.30;99.90
23237;DHT22;11787;52.018;8.570;2023-04-24T06:01:45;10.40;99.90
23237;DHT22;11787;52.018;8.570;2023-04-24T06:04:12;10.40;99.90
23237;DHT22;11787;52.018;8.570;2023-04-24T06:06:38;10.40;99.90
23237;DHT22;11787;52.018;8.570;2023-04-24T06:09:04;10.40;99.90
23237;DHT22;11787;52.018;8.570;2023-04-24T06:11:30;10.40;99.90
23237;DHT22;11787;52.018;8.570;2023-04-24T06:13:56;10.40;99.90
23237;DHT22;11787;52.018;8.570;2023-04-24T06:16:21;10.40;99.90
23237;DHT22;11787;52.018;8.570;2023-04-24T06:18:47;10.40;99.90
23237;DHT22;11787;52.018;8.570;2023-04-24T06:21:13;10.50;99.90
23237;DHT22;11787;52.018;8.570;2023-04-24T06:23:38;10.50;99.90
23237;DHT22;11787;52.018;8.570;2023-04-24T06:26:04;10.50;99.90
23237;DHT22;11787;52.018;8.570;2023-04-24T06:28:29;10.40;99.90
23237;DHT22;11787;52.018;8.570;2023-04-24T06:30:55;10.40;99.90
23237;DHT22;11787;52.018;8.570;2023-04-24T06:33:21;10.50;99.90
23237;DHT22;11787;52.018;8.570;2023-04-24T06:35:46;10.40;99.90
23237;DHT22;11787;52.018;8.570;2023-04-24T06:38:12;10.50;99.90
23237;DHT22;11787;52.018;8.570;2023-04-24T06:40:37;10.50;99.90
23237;DHT22;11787;52.018;8.570;2023-04-24T06:43:03;10.60;99.90
23237;DHT22;11787;52.018;8.570;2023-04-24T06:45:29;10.60;99.90
23237;DHT22;11787;52.018;8.570;2023-04-24T06:47:55;10.50;99.90
23237;DHT22;11787;52.018;8.570;2023-04-24T06:50:21;10.50;99.90
23237;DHT22;11787;52.018;8.570;2023-04-24T06:52:47;10.50;99.90
23237;DHT22;11787;52.018;8.570;2023-04-24T06:55:12;10.50;99.90
23237;DHT22;11787;52.018;8.570;2023-04-24T06:57:38;10.50;99.90
23237;DHT22;11787;52.018;8.570;2023-04-24T07:00:05;10.50;99.90
23237;DHT22;11787;52.018;8.570;2023-04-24T07:02:31;10.60;99.90
23237;DHT22;11787;52.018;8.570;2023-04-24T07:04:57;10.70;99.90
23237;DHT22;11787;52.018;8.570;2023-04-24T07:07:23;10.70;99.90
23237;DHT22;11787;52.018;8.570;2023-04-24T07:09:49;10.70;99.90
23237;DHT22;11787;52.018;8.570;2023-04-24T07:12:16;10.80;99.90
23237;DHT22;11787;52.018;8.570;2023-04-24T07:14:42;10.70;99.90
23237;DHT22;11787;52.018;8.570;2023-04-24T07:17:08;10.70;99.90
23237;DHT22;11787;52.018;8.570;2023-04-24T07:19:34;10.70;99.90
23237;DHT22;11787;52.018;8.570;2023-04-24T07:22:01;10.70;99.90
23237;DHT22;11787;52.018;8.570;2023-04-24T07:24:26;10.70;99.90
23237;DHT22;11787;52.018;8.570;2023-04-24T07:26:53;10.70;99.90
23237;DHT22;11787;52.018;8.570;2023-04-24T07:29:19;10.80;99.90
23237;DHT22;11787;52.018;8.570;2023-04-24T07:31:46;10.90;99.90
23237;DHT22;11787;52.018;8.570;2023-04-24T07:34:12;10.90;99.90
23237;DHT22;11787;52.018;8.570;2023-04-24T07:36:37;10.90;99.90
23237;DHT22;11787;52.018;8.570;2023-04-24T07:39:05;11.00;99.90
23237;DHT22;11787;52.018;8.570;2023-04-24T07:41:31;11.00;99.90
23237;DHT22;11787;52.018;8.570;2023-04-24T07:43:57;11.00;99.90
23237;DHT22;11787;52.018;8.570;2023-04-24T07:46:23;11.00;99.90
23237;DHT22;11787;52.018;8.570;2023-04-24T07:48:49;11.00;99.90
23237;DHT22;11787;52.018;8.570;2023-04-24T07:51:15;11.00;99.90
23237;DHT22;11787;52.018;8.570;2023-04-24T07:53:42;11.00;99.90
23237;DHT22;11787;52.018;8.570;2023-04-24T07:56:08;11.10;99.90
23237;DHT22;11787;52.018;8.570;2023-04-24T07:58:34;11.10;99.90
23237;DHT22;11787;52.018;8.570;2023-04-24T08:00:59;11.20;99.90
23237;DHT22;11787;52.018;8.570;2023-04-24T08:03:25;11.20;99.90
23237;DHT22;11787;52.018;8.570;2023-04-24T08:05:51;11.20;99.90
23237;DHT22;11787;52.018;8.570;2023-04-24T08:08:17;11.30;99.90
23237;DHT22;11787;52.018;8.570;2023-04-24T08:10:43;11.40;99.90
23237;DHT22;11787;52.018;8.570;2023-04-24T08:13:08;11.40;99.90
23237;DHT22;11787;52.018;8.570;2023-04-24T08:15:34;11.30;99.90
23237;DHT22;11787;52.018;8.570;2023-04-24T08:18:00;11.30;99.90
23237;DHT22;11787;52.018;8.570;2023-04-24T08:20:26;11.30;99.90
23237;DHT22;11787;52.018;8.570;2023-04-24T08:22:51;11.20;99.90
23237;DHT22;11787;52.018;8.570;2023-04-24T08:25:17;11.20;99.90
23237;DHT22;11787;52.018;8.570;2023-04-24T08:27:44;11.20;99.90
23237;DHT22;11787;52.018;8.570;2023-04-24T08:30:10;11.20;99.90
23237;DHT22;11787;52.018;8.570;2023-04-24T08:32:36;11.20;99.90
23237;DHT22;11787;52.018;8.570;2023-04-24T08:35:02;11.20;99.90
23237;DHT22;11787;52.018;8.570;2023-04-24T08:37:29;11.40;99.90
23237;DHT22;11787;52.018;8.570;2023-04-24T08:39:54;11.70;99.90
23237;DHT22;11787;52.018;8.570;2023-04-24T08:42:20;12.00;99.90
23237;DHT22;11787;52.018;8.570;2023-04-24T08:44:47;12.10;99.90
23237;DHT22;11787;52.018;8.570;2023-04-24T08:47:14;12.20;99.90
23237;DHT22;11787;52.018;8.570;2023-04-24T08:49:40;12.40;99.90
23237;DHT22;11787;52.018;8.570;2023-04-24T08:52:06;12.50;99.90
23237;DHT22;11787;52.018;8.570;2023-04-24T08:54:34;12.50;99.90
23237;DHT22;11787;52.018;8.570;2023-04-24T08:57:01;12.30;99.90
23237;DHT22;11787;52.018;8.570;2023-04-24T08:59:28;12.30;99.90
23237;DHT22;11787;52.018;8.570;2023-04-24T09:01:55;12.30;99.90
23237;DHT22;11787;52.018;8.570;2023-04-24T09:04:22;12.10;99.90
23237;DHT22;11787;52.018;8.570;2023-04-24T09:06:50;12.10;99.90
23237;DHT22;11787;52.018;8.570;2023-04-24T09:09:17;12.00;99.90
23237;DHT22;11787;52.018;8.570;2023-04-24T09:11:43;11.90;99.90
23237;DHT22;11787;52.018;8.570;2023-04-24T09:14:10;11.90;99.90
23237;DHT22;11787;52.018;8.570;2023-04-24T09:16:36;11.80;99.90
23237;DHT22;11787;52.018;8.570;2023-04-24T09:19:02;11.80;99.90
23237;DHT22;11787;52.018;8.570;2023-04-24T09:21:32;11.70;99.90
23237;DHT22;11787;52.018;8.570;2023-04-24T09:23:59;11.70;99.90
23237;DHT22;11787;52.018;8.570;2023-04-24T09:26:28;11.60;99.90
23237;DHT22;11787;52.018;8.570;2023-04-24T09:28:54;11.60;99.90
23237;DHT22;11787;52.018;8.570;2023-04-24T09:31:20;11.70;99.90
23237;DHT22;11787;52.018;8.570;2023-04-24T09:34:04;11.70;99.90
23237;DHT22;11787;52.018;8.570;2023-04-24T09:36:35;11.80;99.90
23237;DHT22;11787;52.018;8.570;2023-04-24T09:39:07;11.50;99.90
23237;DHT22;11787;52.018;8.570;2023-04-24T09:41:33;11.50;99.90
23237;DHT22;11787;52.018;8.570;2023-04-24T09:44:15;11.40;99.90
23237;DHT22;11787;52.018;8.570;2023-04-24T09:46:42;11.40;99.90
23237;DHT22;11787;52.018;8.570;2023-04-24T09:49:10;11.40;99.90
23237;DHT22;11787;52.018;8.570;2023-04-24T09:51:37;11.50;99.90
23237;DHT22;11787;52.018;8.570;2023-04-24T09:54:04;11.50;99.90
23237;DHT22;11787;52.018;8.570;2023-04-24T09:56:33;11.60;99.90
23237;DHT22;11787;52.018;8.570;2023-04-24T09:59:06;11.70;99.90
23237;DHT22;11787;52.018;8.570;2023-04-24T10:01:33;11.70;99.90
23237;DHT22;11787;52.018;8.570;2023-04-24T10:03:59;11.50;99.90
23237;DHT22;11787;52.018;8.570;2023-04-24T10:06:34;11.40;99.90
23237;DHT22;11787;52.018;8.570;2023-04-24T10:09:00;11.30;99.90
23237;DHT22;11787;52.018;8.570;2023-04-24T10:11:30;11.20;99.90
23237;DHT22;11787;52.018;8.570;2023-04-24T10:13:56;11.10;99.90
23237;DHT22;11787;52.018;8.570;2023-04-24T10:16:23;11.10;99.90
23237;DHT22;11787;52.018;8.570;2023-04-24T10:18:48;11.00;99.90
23237;DHT22;11787;52.018;8.570;2023-04-24T10:21:17;11.00;99.90
23237;DHT22;11787;52.018;8.570;2023-04-24T10:23:43;11.10;99.90
23237;DHT22;11787;52.018;8.570;2023-04-24T10:26:18;11.20;99.90
23237;DHT22;11787;52.018;8.570;2023-04-24T10:28:47;11.30;99.90
23237;DHT22;11787;52.018;8.570;2023-04-24T10:31:14;11.40;99.90
23237;DHT22;11787;52.018;8.570;2023-04-24T10:33:42;11.20;99.90
23237;DHT22;11787;52.018;8.570;2023-04-24T10:36:09;11.10;99.90
23237;DHT22;11787;52.018;8.570;2023-04-24T10:38:37;11.20;99.90
23237;DHT22;11787;52.018;8.570;2023-04-24T10:41:10;11.20;99.90
23237;DHT22;11787;52.018;8.570;2023-04-24T10:43:45;11.20;99.90
23237;DHT22;11787;52.018;8.570;2023-04-24T10:46:19;11.20;99.90
23237;DHT22;11787;52.018;8.570;2023-04-24T10:48:51;11.00;99.90
23237;DHT22;11787;52.018;8.570;2023-04-24T10:51:17;11.00;99.90
23237;DHT22;11787;52.018;8.570;2023-04-24T10:53:43;11.00;99.90
23237;DHT22;11787;52.018;8.570;2023-04-24T10:56:09;10.90;99.90
23237;DHT22;11787;52.018;8.570;2023-04-24T10:58:42;10.80;99.90
23237;DHT22;11787;52.018;8.570;2023-04-24T11:03:55;10.60;99.90
23237;DHT22;11787;52.018;8.570;2023-04-24T11:06:33;10.50;99.90
23237;DHT22;11787;52.018;8.570;2023-04-24T11:09:04;10.50;99.90
23237;DHT22;11787;52.018;8.570;2023-04-24T11:11:31;10.50;99.90
23237;DHT22;11787;52.018;8.570;2023-04-24T11:16:34;10.40;99.90
23237;DHT22;11787;52.018;8.570;2023-04-24T11:19:02;10.40;99.90
23237;DHT22;11787;52.018;8.570;2023-04-24T11:21:54;10.30;99.90
23237;DHT22;11787;52.018;8.570;2023-04-24T11:24:32;10.20;99.90
23237;DHT22;11787;52.018;8.570;2023-04-24T11:34:41;10.20;99.90
23237;DHT22;11787;52.018;8.570;2023-04-24T11:37:10;10.20;99.90
23237;DHT22;11787;52.018;8.570;2023-04-24T11:39:38;10.00;99.90
23237;DHT22;11787;52.018;8.570;2023-04-24T11:42:04;10.10;99.90
23237;DHT22;11787;52.018;8.570;2023-04-24T11:44:34;10.10;99.90
23237;DHT22;11787;52.018;8.570;2023-04-24T11:46:59;9.90;99.90
23237;DHT22;11787;52.018;8.570;2023-04-24T11:49:25;9.90;99.90
23237;DHT22;11787;52.018;8.570;2023-04-24T11:51:55;9.70;99.90
23237;DHT22;11787;52.018;8.570;2023-04-24T11:54:21;9.60;99.90
23237;DHT22;11787;52.018;8.570;2023-04-24T11:56:47;9.60;99.90
23237;DHT22;11787;52.018;8.570;2023-04-24T11:59:12;9.60;99.90
23237;DHT22;11787;52.018;8.570;2023-04-24T12:01:45;9.50;99.90
23237;DHT22;11787;52.018;8.570;2023-04-24T12:04:11;9.40;99.90
23237;DHT22;11787;52.018;8.570;2023-04-24T12:06:37;9.40;99.90
23237;DHT22;11787;52.018;8.570;2023-04-24T12:09:03;9.50;99.90
23237;DHT22;11787;52.018;8.570;2023-04-24T12:11:28;9.50;99.90
23237;DHT22;11787;52.018;8.570;2023-04-24T12:13:54;9.50;99.90
23237;DHT22;11787;52.018;8.570;2023-04-24T12:16:20;9.50;99.90
23237;DHT22;11787;52.018;8.570;2023-04-24T12:18:46;9.60;99.90
23237;DHT22;11787;52.018;8.570;2023-04-24T12:21:16;9.50;99.90
23237;DHT22;11787;52.018;8.570;2023-04-24T12:23:44;9.40;99.90
23237;DHT22;11787;52.018;8.570;2023-04-24T12:26:11;9.30;99.90
23237;DHT22;11787;52.018;8.570;2023-04-24T12:28:38;9.30;99.90
23237;DHT22;11787;52.018;8.570;2023-04-24T12:31:04;9.20;99.90
23237;DHT22;11787;52.018;8.570;2023-04-24T12:33:34;9.20;99.90
23237;DHT22;11787;52.018;8.570;2023-04-24T12:36:00;9.10;99.90
23237;DHT22;11787;52.018;8.570;2023-04-24T12:38:28;9.20;99.90
23237;DHT22;11787;52.018;8.570;2023-04-24T12:41:06;9.20;99.90
23237;DHT22;11787;52.018;8.570;2023-04-24T12:43:32;9.10;99.90
23237;DHT22;11787;52.018;8.570;2023-04-24T12:45:58;9.30;99.90
23237;DHT22;11787;52.018;8.570;2023-04-24T12:48:27;9.30;99.90
23237;DHT22;11787;52.018;8.570;2023-04-24T12:50:53;9.30;99.90
23237;DHT22;11787;52.018;8.570;2023-04-24T12:53:20;9.30;99.90
23237;DHT22;11787;52.018;8.570;2023-04-24T12:55:46;9.20;99.90
23237;DHT22;11787;52.018;8.570;2023-04-24T12:58:18;9.20;99.90
23237;DHT22;11787;52.018;8.570;2023-04-24T13:00:44;9.30;99.90
23237;DHT22;11787;52.018;8.570;2023-04-24T13:03:11;9.20;99.90
23237;DHT22;11787;52.018;8.570;2023-04-24T13:05:37;9.20;99.90
23237;DHT22;11787;52.018;8.570;2023-04-24T13:08:02;9.10;99.90
23237;DHT22;11787;52.018;8.570;2023-04-24T13:10:28;9.20;99.90
23237;DHT22;11787;52.018;8.570;2023-04-24T13:12:54;9.10;99.90
23237;DHT22;11787;52.018;8.570;2023-04-24T13:15:19;9.10;99.90
23237;DHT22;11787;52.018;8.570;2023-04-24T13:17:45;9.10;99.90
23237;DHT22;11787;52.018;8.570;2023-04-24T13:20:10;9.10;99.90
23237;DHT22;11787;52.018;8.570;2023-04-24T13:22:36;9.20;99.90
23237;DHT22;11787;52.018;8.570;2023-04-24T13:25:02;9.30;99.90
23237;DHT22;11787;52.018;8.570;2023-04-24T13:27:28;9.40;99.90
23237;DHT22;11787;52.018;8.570;2023-04-24T13:29:53;9.30;99.90
23237;DHT22;11787;52.018;8.570;2023-04-24T13:32:19;9.40;99.90
23237;DHT22;11787;52.018;8.570;2023-04-24T13:34:45;9.30;99.90
23237;DHT22;11787;52.018;8.570;2023-04-24T13:37:11;9.30;99.90
23237;DHT22;11787;52.018;8.570;2023-04-24T13:39:36;9.20;99.90
23237;DHT22;11787;52.018;8.570;2023-04-24T13:42:02;9.20;99.90
23237;DHT22;11787;52.018;8.570;2023-04-24T13:44:28;9.10;99.90
23237;DHT22;11787;52.018;8.570;2023-04-24T13:46:54;9.10;99.90
23237;DHT22;11787;52.018;8.570;2023-04-24T13:49:23;9.10;99.90
23237;DHT22;11787;52.018;8.570;2023-04-24T13:51:53;9.20;99.90
23237;DHT22;11787;52.018;8.570;2023-04-24T13:54:19;9.20;99.90
23237;DHT22;11787;52.018;8.570;2023-04-24T13:56:44;9.20;99.90
23237;DHT22;11787;52.018;8.570;2023-04-24T13:59:12;9.20;99.90
23237;DHT22;11787;52.018;8.570;2023-04-24T14:01:38;9.20;99.90
23237;DHT22;11787;52.018;8.570;2023-04-24T14:04:04;9.30;99.90
23237;DHT22;11787;52.018;8.570;2023-04-24T14:06:29;9.20;99.90
23237;DHT22;11787;52.018;8.570;2023-04-24T14:08:56;9.20;99.90
23237;DHT22;11787;52.018;8.570;2023-04-24T14:29:17;9.20;99.90
23237;DHT22;11787;52.018;8.570;2023-04-24T14:31:43;9.20;99.90
23237;DHT22;11787;52.018;8.570;2023-04-24T14:34:09;9.30;99.90
23237;DHT22;11787;52.018;8.570;2023-04-24T14:36:34;9.50;99.90
23237;DHT22;11787;52.018;8.570;2023-04-24T14:39:00;9.40;99.90
23237;DHT22;11787;52.018;8.570;2023-04-24T14:41:30;9.50;99.90
23237;DHT22;11787;52.018;8.570;2023-04-24T14:43:56;9.50;99.90
23237;DHT22;11787;52.018;8.570;2023-04-24T14:46:22;9.50;99.90
23237;DHT22;11787;52.018;8.570;2023-04-24T14:48:48;9.60;99.90
23237;DHT22;11787;52.018;8.570;2023-04-24T14:51:13;9.70;99.90
23237;DHT22;11787;52.018;8.570;2023-04-24T14:53:39;9.60;99.90
23237;DHT22;11787;52.018;8.570;2023-04-24T14:56:04;9.60;99.90
23237;DHT22;11787;52.018;8.570;2023-04-24T14:58:30;9.60;99.90
23237;DHT22;11787;52.018;8.570;2023-04-24T15:00:56;9.50;99.90
23237;DHT22;11787;52.018;8.570;2023-04-24T15:03:22;9.40;99.90
23237;DHT22;11787;52.018;8.570;2023-04-24T15:05:48;9.40;99.90
23237;DHT22;11787;52.018;8.570;2023-04-24T15:08:14;9.30;99.90
23237;DHT22;11787;52.018;8.570;2023-04-24T15:10:39;9.20;99.90
23237;DHT22;11787;52.018;8.570;2023-04-24T15:13:05;9.30;99.90
23237;DHT22;11787;52.018;8.570;2023-04-24T15:15:31;9.20;99.90
23237;DHT22;11787;52.018;8.570;2023-04-24T15:17:56;9.30;99.90
23237;DHT22;11787;52.018;8.570;2023-04-24T15:20:22;9.30;99.90
23237;DHT22;11787;52.018;8.570;2023-04-24T15:22:47;9.30;99.90
23237;DHT22;11787;52.018;8.570;2023-04-24T15:25:13;9.40;99.90
23237;DHT22;11787;52.018;8.570;2023-04-24T15:27:42;9.40;99.90
23237;DHT22;11787;52.018;8.570;2023-04-24T15:30:09;9.30;99.90
23237;DHT22;11787;52.018;8.570;2023-04-24T15:32:35;9.40;99.90
23237;DHT22;11787;52.018;8.570;2023-04-24T15:35:01;9.50;99.90
23237;DHT22;11787;52.018;8.570;2023-04-24T15:37:27;9.30;99.90
23237;DHT22;11787;52.018;8.570;2023-04-24T15:39:52;9.40;99.90
23237;DHT22;11787;52.018;8.570;2023-04-24T15:42:18;9.30;99.90
23237;DHT22;11787;52.018;8.570;2023-04-24T15:44:43;9.40;99.90
23237;DHT22;11787;52.018;8.570;2023-04-24T15:47:09;9.30;99.90
23237;DHT22;11787;52.018;8.570;2023-04-24T15:49:35;9.30;99.90
23237;DHT22;11787;52.018;8.570;2023-04-24T15:52:00;9.30;99.90
23237;DHT22;11787;52.018;8.570;2023-04-24T15:54:26;9.30;99.90
23237;DHT22;11787;52.018;8.570;2023-04-24T15:56:52;9.30;99.90
23237;DHT22;11787;52.018;8.570;2023-04-24T15:59:17;9.30;99.90
23237;DHT22;11787;52.018;8.570;2023-04-24T16:01:43;9.30;99.90